Time;durP1;ratioP1;P1;durP2;ratioP2;P2;SDS_P1;SDS_P2;PMS_P1;PMS_P2;Temp;Humidity;BMP_temperature;BMP_pressure;BME280_temperature;BME280_humidity;BME280_pressure;Samples;Min_cycle;Max_cycle;Signal;HPM_P1;HPM_P2
2023/01/11 00:01:26;;;;;;;5.35;1.75;;;23.90;99.90;;;;;;5060635;28;20565;-85
2023/01/11 00:03:58;;;;;;;2.70;1.13;;;23.90;99.90;;;;;;5059420;28;20215;-85
2023/01/11 00:06:32;;;;;;;4.57;1.25;;;23.90;99.90;;;;;;5057258;28;20257;-85
2023/01/11 00:09:03;;;;;;;3.40;1.30;;;23.90;99.90;;;;;;5057873;28;20660;-85
2023/01/11 00:11:34;;;;;;;3.45;1.55;;;23.90;99.90;;;;;;5056338;28;20191;-85
2023/01/11 00:14:05;;;;;;;3.08;1.17;;;23.90;99.90;;;;;;5053149;28;20218;-85
2023/01/11 00:16:37;;;;;;;4.28;1.27;;;23.90;99.90;;;;;;5054744;28;20238;-85
2023/01/11 00:19:10;;;;;;;3.40;1.23;;;23.90;99.90;;;;;;5074804;28;20176;-85
2023/01/11 00:21:43;;;;;;;2.88;1.35;;;23.90;99.90;;;;;;5059571;28;20286;-85
2023/01/11 00:24:14;;;;;;;3.00;1.15;;;23.90;99.90;;;;;;5055770;28;20238;-85
2023/01/11 00:26:45;;;;;;;2.67;1.02;;;23.90;99.90;;;;;;5054187;28;20199;-83
2023/01/11 00:29:17;;;;;;;3.30;1.40;;;23.90;99.90;;;;;;5051794;28;20199;-83
2023/01/11 00:31:48;;;;;;;3.65;1.30;;;23.90;99.90;;;;;;5055970;28;20212;-84
2023/01/11 00:34:20;;;;;;;5.45;1.60;;;23.90;99.90;;;;;;5059994;28;20208;-85
2023/01/11 00:36:56;;;;;;;3.10;1.38;;;24.00;99.90;;;;;;5061205;28;20220;-85
2023/01/11 00:39:30;;;;;;;4.18;1.50;;;23.90;99.90;;;;;;5059099;28;20219;-86
2023/01/11 00:47:59;;;;;;;7.10;1.55;;;23.90;99.90;;;;;;5030650;28;20205;-85
2023/01/11 00:50:32;;;;;;;3.42;1.48;;;24.00;99.90;;;;;;5056034;28;20224;-85
2023/01/11 00:53:06;;;;;;;3.10;1.30;;;24.00;99.90;;;;;;5057087;28;20195;-84
2023/01/11 00:55:37;;;;;;;4.47;1.15;;;24.00;99.90;;;;;;5058216;28;20307;-85
2023/01/11 00:58:09;;;;;;;5.53;1.35;;;24.10;99.90;;;;;;5060269;28;20204;-86
2023/01/11 01:00:40;;;;;;;3.65;1.17;;;24.10;99.90;;;;;;5060849;28;20268;-83
2023/01/11 01:03:12;;;;;;;4.85;1.45;;;24.10;99.90;;;;;;5055434;28;20206;-85
2023/01/11 01:05:43;;;;;;;3.70;1.40;;;24.10;99.90;;;;;;5057270;28;20874;-85
2023/01/11 01:08:17;;;;;;;3.70;1.27;;;24.10;99.90;;;;;;5056765;28;20197;-84
2023/01/11 01:10:48;;;;;;;4.53;1.60;;;24.20;99.90;;;;;;5060075;28;21305;-85
2023/01/11 01:16:06;;;;;;;2.90;1.30;;;24.30;99.90;;;;;;5060257;28;20227;-85
2023/01/11 01:18:38;;;;;;;4.78;1.65;;;24.20;99.90;;;;;;5071753;28;20197;-85
2023/01/11 01:21:09;;;;;;;2.17;1.25;;;24.30;99.90;;;;;;5074832;28;20219;-84
2023/01/11 01:23:42;;;;;;;4.57;1.38;;;24.30;99.90;;;;;;5053606;28;20230;-84
2023/01/11 01:26:13;;;;;;;3.28;1.50;;;24.20;99.90;;;;;;5053234;28;20200;-84
2023/01/11 01:28:44;;;;;;;3.85;1.55;;;24.20;99.90;;;;;;5055969;28;20207;-84
2023/01/11 01:31:17;;;;;;;2.45;1.42;;;24.30;99.90;;;;;;5059891;28;20219;-86
2023/01/11 01:33:48;;;;;;;5.38;1.40;;;24.30;99.90;;;;;;5056544;28;20193;-85
2023/01/11 01:36:20;;;;;;;4.63;1.60;;;24.40;99.90;;;;;;5060522;28;20231;-84
2023/01/11 01:38:54;;;;;;;2.72;1.48;;;24.50;99.90;;;;;;5055524;28;20230;-84
2023/01/11 01:41:26;;;;;;;2.53;1.55;;;24.50;99.90;;;;;;5057358;28;20218;-87
2023/01/11 01:44:00;;;;;;;4.18;1.38;;;24.50;99.90;;;;;;5056802;28;20204;-85
2023/01/11 01:46:32;;;;;;;3.08;1.52;;;24.50;99.90;;;;;;5058366;28;20660;-85
2023/01/11 01:49:09;;;;;;;2.47;1.50;;;24.50;99.90;;;;;;5058707;28;20561;-86
2023/01/11 01:51:44;;;;;;;3.90;1.70;;;24.60;99.90;;;;;;5056747;28;20226;-86
2023/01/11 01:54:21;;;;;;;6.43;1.63;;;24.60;99.90;;;;;;5054499;28;20220;-86
2023/01/11 01:56:56;;;;;;;3.58;1.50;;;24.50;99.90;;;;;;5057772;28;20211;-85
2023/01/11 01:59:31;;;;;;;2.45;1.42;;;24.60;99.90;;;;;;5053685;28;20693;-87
2023/01/11 02:02:03;;;;;;;3.70;1.52;;;24.60;99.90;;;;;;5052659;28;20204;-85
2023/01/11 02:04:36;;;;;;;3.92;1.50;;;24.60;99.90;;;;;;5058551;28;20693;-85
2023/01/11 02:07:08;;;;;;;6.70;1.70;;;24.70;99.90;;;;;;5053827;28;20195;-86
2023/01/11 02:09:45;;;;;;;4.20;1.17;;;24.70;99.90;;;;;;5057440;28;20287;-84
2023/01/11 02:12:17;;;;;;;3.55;1.70;;;24.70;99.90;;;;;;5059499;28;20626;-83
2023/01/11 02:14:49;;;;;;;4.40;1.75;;;24.80;99.90;;;;;;5059146;28;20565;-85
2023/01/11 02:17:23;;;;;;;2.90;1.50;;;24.80;99.90;;;;;;5058895;28;20662;-83
2023/01/11 02:19:59;;;;;;;4.82;1.50;;;24.80;99.90;;;;;;5054399;28;20224;-84
2023/01/11 02:23:11;;;;;;;6.45;2.20;;;24.90;99.90;;;;;;5076152;28;20218;-84
2023/01/11 02:26:21;;;;;;;3.58;2.08;;;25.10;99.90;;;;;;5058193;28;20561;-84
2023/01/11 02:28:57;;;;;;;3.20;1.58;;;25.00;99.90;;;;;;5064367;28;20195;-85
2023/01/11 02:31:35;;;;;;;3.00;1.50;;;25.00;99.90;;;;;;5054888;28;20203;-85
2023/01/11 02:34:20;;;;;;;5.45;1.70;;;25.00;99.90;;;;;;5058482;28;20254;-84
2023/01/11 02:37:07;;;;;;;3.92;1.73;;;25.10;99.90;;;;;;5055327;28;20222;-84
2023/01/11 02:39:47;;;;;;;3.50;1.50;;;25.20;99.90;;;;;;5058798;28;20202;-85
2023/01/11 02:45:27;;;;;;;2.88;1.60;;;25.40;99.90;;;;;;5054457;28;20250;-85
2023/01/11 02:48:02;;;;;;;3.35;1.50;;;25.50;99.90;;;;;;5054362;28;20663;-85
2023/01/11 02:50:40;;;;;;;4.50;1.55;;;25.50;99.90;;;;;;5056224;28;20696;-90
2023/01/11 02:53:20;;;;;;;2.25;1.42;;;25.60;99.90;;;;;;5060217;28;20195;-91
2023/01/11 02:55:59;;;;;;;3.92;1.50;;;25.60;99.90;;;;;;5062126;28;20200;-90
2023/01/11 02:58:34;;;;;;;2.95;1.67;;;25.60;99.90;;;;;;5057018;28;20198;-89
2023/01/11 03:01:11;;;;;;;4.57;1.77;;;25.70;99.90;;;;;;5061744;28;22062;-85
2023/01/11 03:03:45;;;;;;;5.35;1.65;;;25.80;99.90;;;;;;5064814;28;20273;-88
2023/01/11 03:06:19;;;;;;;3.10;1.63;;;25.80;99.90;;;;;;5058999;28;20219;-89
2023/01/11 03:09:09;;;;;;;3.92;1.63;;;25.90;99.90;;;;;;5062529;28;20641;-89
2023/01/11 03:15:00;;;;;;;5.90;1.65;;;26.10;99.90;;;;;;5063543;28;20258;-87
2023/01/11 03:17:47;;;;;;;6.85;1.95;;;26.10;99.90;;;;;;5059299;28;20382;-86
2023/01/11 03:20:28;;;;;;;4.60;1.65;;;26.20;99.90;;;;;;5060259;28;20195;-86
2023/01/11 03:23:11;;;;;;;4.43;1.90;;;26.20;99.90;;;;;;5065247;28;20231;-86
2023/01/11 03:26:37;;;;;;;;;;;;;;;;;;;;;
2023/01/11 03:29:19;;;;;;;3.70;1.77;;;26.40;99.90;;;;;;5052909;28;20219;-85
2023/01/11 03:31:54;;;;;;;3.95;1.75;;;26.50;99.90;;;;;;5064776;28;20535;-83
2023/01/11 03:34:36;;;;;;;4.10;1.70;;;26.50;99.90;;;;;;5070388;28;20224;-87
2023/01/11 03:37:13;;;;;;;3.28;1.58;;;26.60;99.90;;;;;;5063645;28;20326;-86
2023/01/11 03:39:49;;;;;;;3.13;1.45;;;26.60;99.90;;;;;;5064311;28;20216;-87
2023/01/11 03:42:24;;;;;;;3.58;1.63;;;26.50;99.90;;;;;;5064702;28;20200;-84
2023/01/11 03:44:58;;;;;;;4.15;1.80;;;26.50;99.90;;;;;;5072935;28;20243;-87
2023/01/11 03:47:31;;;;;;;1.98;1.48;;;26.60;99.90;;;;;;5061348;28;20204;-86
2023/01/11 03:50:09;;;;;;;4.93;1.85;;;26.60;99.90;;;;;;5066795;28;20200;-87
2023/01/11 03:52:44;;;;;;;5.20;1.70;;;26.70;99.90;;;;;;5063162;28;20218;-87
2023/01/11 03:55:18;;;;;;;3.60;1.92;;;26.70;99.90;;;;;;5060390;28;20799;-87
2023/01/11 03:57:53;;;;;;;2.92;1.75;;;26.70;99.90;;;;;;5066117;28;20743;-86
2023/01/11 04:00:26;;;;;;;3.85;1.80;;;26.80;99.90;;;;;;5062503;28;20250;-87
2023/01/11 04:02:57;;;;;;;7.72;2.00;;;26.80;99.90;;;;;;5065474;28;20196;-88
2023/01/11 04:05:30;;;;;;;2.35;1.50;;;26.90;99.90;;;;;;5061303;28;20188;-88
2023/01/11 04:08:01;;;;;;;3.00;1.85;;;27.00;99.90;;;;;;5065724;28;20577;-86
2023/01/11 04:10:32;;;;;;;4.07;1.95;;;27.00;99.90;;;;;;5058636;28;20631;-86
2023/01/11 04:13:04;;;;;;;4.53;1.90;;;27.00;99.90;;;;;;5063792;28;20279;-86
2023/01/11 04:15:35;;;;;;;4.68;1.90;;;27.00;99.90;;;;;;5060352;28;20216;-86
2023/01/11 04:18:07;;;;;;;4.22;1.80;;;27.00;99.90;;;;;;5058526;28;20224;-87
2023/01/11 04:20:41;;;;;;;3.47;1.85;;;27.00;99.90;;;;;;5062254;28;20540;-87
2023/01/11 04:23:13;;;;;;;3.65;1.60;;;27.10;99.90;;;;;;5063243;28;20223;-86
2023/01/11 04:25:45;;;;;;;2.28;1.35;;;27.30;99.90;;;;;;5065943;28;20666;-85
2023/01/11 04:28:20;;;;;;;3.45;1.83;;;27.30;99.90;;;;;;5075024;28;20228;-87
2023/01/11 04:30:51;;;;;;;4.63;1.85;;;27.30;99.90;;;;;;5062517;28;20191;-86
2023/01/11 04:33:22;;;;;;;3.03;1.60;;;27.30;99.90;;;;;;5057712;28;20295;-86
2023/01/11 04:35:55;;;;;;;3.50;1.67;;;27.30;99.90;;;;;;5063051;28;20205;-87
2023/01/11 04:38:27;;;;;;;4.90;1.67;;;27.40;99.90;;;;;;5054818;28;20224;-87
2023/01/11 04:43:44;;;;;;;4.22;1.70;;;27.40;99.90;;;;;;5054954;28;20717;-85
2023/01/11 04:46:15;;;;;;;3.67;1.60;;;27.40;99.90;;;;;;5061361;28;20204;-86
2023/01/11 04:48:48;;;;;;;3.55;1.70;;;27.40;99.90;;;;;;5056773;28;20208;-87
2023/01/11 04:51:27;;;;;;;5.22;1.70;;;27.50;99.90;;;;;;5055196;28;20196;-86
2023/01/11 04:53:59;;;;;;;4.05;1.52;;;27.60;99.90;;;;;;5058513;28;20233;-86
2023/01/11 04:56:30;;;;;;;6.03;2.00;;;27.70;99.90;;;;;;5058419;28;20196;-87
2023/01/11 04:59:02;;;;;;;3.97;1.60;;;27.90;99.90;;;;;;5058506;28;20196;-86
2023/01/11 05:01:33;;;;;;;3.55;1.70;;;28.10;99.90;;;;;;5057182;28;20658;-84
2023/01/11 05:04:05;;;;;;;4.78;1.75;;;28.30;99.90;;;;;;5057869;28;20658;-86
2023/01/11 05:06:39;;;;;;;4.35;1.75;;;28.50;99.90;;;;;;5057834;28;20205;-86
2023/01/11 05:09:16;;;;;;;3.35;1.88;;;28.40;99.90;;;;;;5059372;28;20196;-86
2023/01/11 05:11:47;;;;;;;3.33;1.55;;;28.40;99.90;;;;;;5058238;28;20651;-87
2023/01/11 05:14:18;;;;;;;4.10;1.70;;;28.40;99.90;;;;;;5059006;28;20204;-86
2023/01/11 05:16:49;;;;;;;4.57;1.77;;;28.60;99.90;;;;;;5058047;28;20686;-86
2023/01/11 05:19:22;;;;;;;4.53;1.67;;;28.80;99.90;;;;;;5054679;28;20208;-86
2023/01/11 05:21:58;;;;;;;4.32;1.65;;;28.80;99.90;;;;;;5059504;28;20747;-86
2023/01/11 05:24:30;;;;;;;2.42;1.60;;;28.60;99.90;;;;;;5054940;28;20227;-85
2023/01/11 05:27:02;;;;;;;5.88;1.80;;;28.70;99.90;;;;;;5054885;28;20563;-86
2023/01/11 05:29:33;;;;;;;3.42;1.65;;;28.80;99.90;;;;;;5067667;28;20208;-86
2023/01/11 05:32:04;;;;;;;2.42;1.60;;;28.80;99.90;;;;;;5069285;28;20220;-87
2023/01/11 05:34:35;;;;;;;4.70;1.60;;;28.70;99.90;;;;;;5057324;28;20192;-85
2023/01/11 05:37:11;;;;;;;3.33;1.50;;;28.70;99.90;;;;;;5053249;28;20224;-85
2023/01/11 05:39:42;;;;;;;2.42;1.40;;;28.80;99.90;;;;;;5053622;28;20233;-85
2023/01/11 05:42:13;;;;;;;4.05;1.77;;;29.00;99.90;;;;;;5061774;28;20652;-86
2023/01/11 05:47:34;;;;;;;4.90;1.67;;;29.20;99.90;;;;;;5056247;28;20211;-85
2023/01/11 05:50:05;;;;;;;3.72;1.48;;;29.30;99.90;;;;;;5057741;28;20658;-85
2023/01/11 05:52:39;;;;;;;5.65;1.70;;;29.20;99.90;;;;;;5054434;28;20196;-85
2023/01/11 05:55:11;;;;;;;4.20;1.70;;;29.40;99.90;;;;;;5064807;28;20193;-87
2023/01/11 05:57:44;;;;;;;3.95;1.52;;;29.60;99.90;;;;;;5060589;28;20240;-87
2023/01/11 06:00:16;;;;;;;2.42;1.40;;;29.80;99.90;;;;;;5058887;28;20222;-87
2023/01/11 06:02:47;;;;;;;3.25;1.70;;;30.10;99.90;;;;;;5060172;28;20196;-86
2023/01/11 06:05:19;;;;;;;4.32;1.42;;;30.30;99.90;;;;;;5057260;28;20275;-87
2023/01/11 06:07:55;;;;;;;6.80;1.83;;;30.30;99.90;;;;;;5057682;28;20196;-87
2023/01/11 06:10:26;;;;;;;3.70;1.52;;;30.40;99.90;;;;;;5056336;28;20655;-86
2023/01/11 06:13:25;;;;;;;4.80;1.88;;;30.20;99.90;;;;;;5059191;28;20201;-87
2023/01/11 06:15:48;;;;;;;3.30;1.60;;;30.20;99.90;;;;;;5057370;28;20215;-87
2023/01/11 06:18:20;;;;;;;4.30;1.70;;;30.20;99.90;;;;;;5060665;28;20236;-87
2023/01/11 06:20:52;;;;;;;3.60;1.38;;;30.40;99.90;;;;;;5059248;28;20201;-87
2023/01/11 06:23:26;;;;;;;4.45;1.55;;;30.50;99.90;;;;;;5058333;28;20224;-88
2023/01/11 06:25:57;;;;;;;3.80;1.50;;;30.40;99.90;;;;;;5055070;28;20220;-88
2023/01/11 06:28:28;;;;;;;4.15;1.60;;;30.50;99.90;;;;;;5053665;28;20251;-89
2023/01/11 06:31:00;;;;;;;5.65;1.70;;;30.50;99.90;;;;;;5065371;28;20192;-89
2023/01/11 06:33:32;;;;;;;4.60;1.75;;;30.40;99.90;;;;;;5077301;28;20255;-87
2023/01/11 06:36:06;;;;;;;5.63;1.67;;;30.40;99.90;;;;;;5066379;28;20196;-89
2023/01/11 06:38:40;;;;;;;6.43;1.70;;;30.30;99.90;;;;;;5063712;28;20222;-88
2023/01/11 06:41:12;;;;;;;6.13;1.50;;;30.60;99.90;;;;;;5058984;28;20200;-89
2023/01/11 06:43:45;;;;;;;3.22;1.58;;;30.80;99.90;;;;;;5057564;28;20196;-89
2023/01/11 06:46:17;;;;;;;3.05;1.40;;;31.20;99.90;;;;;;5058062;28;20213;-89
2023/01/11 06:48:49;;;;;;;3.08;1.67;;;31.50;99.90;;;;;;5059862;28;20200;-87
2023/01/11 06:51:20;;;;;;;4.05;1.45;;;31.40;99.90;;;;;;5057008;28;20915;-88
2023/01/11 06:53:53;;;;;;;5.53;1.50;;;31.70;99.90;;;;;;5058723;28;20280;-88
2023/01/11 06:56:25;;;;;;;3.85;1.73;;;31.90;99.90;;;;;;5058444;28;20286;-89
2023/01/11 06:58:59;;;;;;;3.58;1.50;;;32.10;99.90;;;;;;5059286;28;20219;-89
2023/01/11 07:01:31;;;;;;;4.68;1.50;;;32.20;99.90;;;;;;5060131;28;20226;-91
2023/01/11 07:04:02;;;;;;;5.93;1.70;;;32.50;99.70;;;;;;5057619;28;20281;-90
2023/01/11 07:06:36;;;;;;;4.25;1.30;;;32.80;97.90;;;;;;5060877;28;20188;-88
2023/01/11 07:09:09;;;;;;;5.57;1.50;;;32.70;99.40;;;;;;5061127;28;20210;-88
2023/01/11 07:11:40;;;;;;;3.65;1.30;;;32.60;99.30;;;;;;5061748;28;20200;-89
2023/01/11 07:14:13;;;;;;;4.25;1.40;;;32.80;98.10;;;;;;5052887;28;20240;-90
2023/01/11 07:16:46;;;;;;;4.00;1.30;;;32.70;98.00;;;;;;5055026;28;20284;-90
2023/01/11 07:19:17;;;;;;;4.78;1.33;;;32.80;98.20;;;;;;5062372;28;20290;-90
2023/01/11 07:21:48;;;;;;;2.65;1.30;;;32.90;97.80;;;;;;5054286;28;20302;-90
2023/01/11 07:24:23;;;;;;;4.38;1.30;;;33.00;96.90;;;;;;5055383;28;20228;-90
2023/01/11 07:26:55;;;;;;;4.75;1.60;;;33.20;95.90;;;;;;5059662;28;20252;-89
2023/01/11 07:29:26;;;;;;;4.63;1.65;;;33.00;96.10;;;;;;5060418;28;20204;-90
2023/01/11 07:31:59;;;;;;;3.55;1.50;;;32.60;97.30;;;;;;5066529;28;20224;-89
2023/01/11 07:34:30;;;;;;;7.32;1.77;;;32.60;97.70;;;;;;5069922;28;20208;-90
2023/01/11 07:37:01;;;;;;;6.10;1.48;;;32.70;96.80;;;;;;5080681;28;20251;-90
2023/01/11 07:39:36;;;;;;;3.88;1.42;;;32.60;97.80;;;;;;5066620;28;20685;-89
2023/01/11 07:44:54;;;;;;;3.60;1.50;;;32.50;96.60;;;;;;5056790;28;20196;-89
2023/01/11 07:47:25;;;;;;;4.03;1.30;;;32.30;96.30;;;;;;5065004;28;20192;-89
2023/01/11 07:49:56;;;;;;;3.72;1.17;;;32.40;95.20;;;;;;5066768;28;20614;-89
2023/01/11 07:52:31;;;;;;;2.38;1.10;;;32.40;94.00;;;;;;5067402;28;20223;-90
2023/01/11 07:55:04;;;;;;;3.90;1.02;;;32.30;95.00;;;;;;5064273;28;20663;-89
2023/01/11 07:57:36;;;;;;;2.05;1.10;;;32.00;93.90;;;;;;5068379;28;20198;-87
2023/01/11 08:00:08;;;;;;;3.90;1.35;;;32.10;94.40;;;;;;5058667;28;20558;-85
2023/01/11 08:02:39;;;;;;;2.15;1.02;;;31.90;94.20;;;;;;5059106;28;20192;-84
2023/01/11 08:05:10;;;;;;;2.97;1.17;;;31.70;94.40;;;;;;5056424;28;20193;-86
2023/01/11 08:07:44;;;;;;;4.00;1.17;;;31.50;95.00;;;;;;5060805;28;20299;-85
2023/01/11 08:10:17;;;;;;;3.20;1.08;;;31.20;95.80;;;;;;5051535;28;20239;-87
2023/01/11 08:15:37;;;;;;;4.47;1.23;;;30.70;96.50;;;;;;5057401;28;20237;-88
2023/01/11 08:18:08;;;;;;;3.25;1.25;;;30.20;98.30;;;;;;5057895;28;20223;-88
2023/01/11 08:20:40;;;;;;;5.70;1.10;;;29.80;99.90;;;;;;5060245;28;20209;-86
2023/01/11 08:23:12;;;;;;;4.35;1.30;;;29.50;99.90;;;;;;5058643;28;20236;-86
2023/01/11 08:25:45;;;;;;;5.45;1.02;;;29.00;99.90;;;;;;5068186;28;20211;-86
2023/01/11 08:28:16;;;;;;;4.10;1.42;;;28.60;99.90;;;;;;5062697;28;20196;-85
2023/01/11 08:30:48;;;;;;;3.53;1.40;;;28.40;99.90;;;;;;5059203;28;20196;-87
2023/01/11 08:33:19;;;;;;;3.05;1.10;;;28.00;99.90;;;;;;5061532;28;20192;-86
2023/01/11 08:35:50;;;;;;;4.18;1.40;;;27.80;99.90;;;;;;5061812;28;20206;-86
2023/01/11 08:38:21;;;;;;;2.70;1.10;;;27.50;99.90;;;;;;5062775;28;20208;-84
2023/01/11 08:40:54;;;;;;;3.80;1.50;;;27.30;99.90;;;;;;5080423;28;20220;-86
2023/01/11 08:43:30;;;;;;;3.13;1.38;;;27.10;99.90;;;;;;5060298;28;20205;-87
2023/01/11 08:46:01;;;;;;;4.68;1.33;;;26.90;99.90;;;;;;5064148;28;20187;-86
2023/01/11 08:48:32;;;;;;;3.80;1.45;;;26.60;99.90;;;;;;5062943;28;20200;-86
2023/01/11 08:51:03;;;;;;;4.57;1.48;;;26.50;99.90;;;;;;5064555;28;20208;-86
2023/01/11 08:53:34;;;;;;;4.20;1.40;;;26.40;99.90;;;;;;5065210;28;20207;-87
2023/01/11 08:56:08;;;;;;;3.80;1.52;;;26.30;99.90;;;;;;5062513;28;20590;-85
2023/01/11 08:58:39;;;;;;;5.25;1.50;;;26.20;99.90;;;;;;5059702;28;20213;-86
2023/01/11 09:01:11;;;;;;;6.18;1.50;;;26.10;99.90;;;;;;5062076;28;20193;-86
2023/01/11 09:03:42;;;;;;;5.25;1.77;;;25.90;99.90;;;;;;5061707;28;20654;-86
2023/01/11 09:06:13;;;;;;;4.57;1.70;;;25.80;99.90;;;;;;5062992;28;20216;-85
2023/01/11 09:08:44;;;;;;;6.28;3.15;;;25.80;99.90;;;;;;5058766;28;20197;-85
2023/01/11 09:14:02;;;;;;;5.35;1.70;;;25.60;99.90;;;;;;5059444;28;20205;-86
2023/01/11 09:16:33;;;;;;;5.45;1.73;;;25.60;99.90;;;;;;5057455;28;20270;-86
2023/01/11 09:19:06;;;;;;;4.75;1.80;;;25.50;99.90;;;;;;5062527;28;20296;-86
2023/01/11 09:21:37;;;;;;;6.55;1.85;;;25.40;99.90;;;;;;5058569;28;20192;-86
2023/01/11 09:24:08;;;;;;;5.57;1.90;;;25.40;99.90;;;;;;5054467;28;20244;-86
2023/01/11 09:26:42;;;;;;;4.75;1.58;;;25.30;99.90;;;;;;5058420;28;20564;-86
2023/01/11 09:29:15;;;;;;;5.45;1.67;;;25.20;99.90;;;;;;5060895;28;20230;-87
2023/01/11 09:31:47;;;;;;;6.88;2.00;;;25.30;99.90;;;;;;5060554;28;20232;-86
2023/01/11 09:34:19;;;;;;;5.60;1.67;;;25.20;99.90;;;;;;5059235;28;20200;-86
2023/01/11 09:36:51;;;;;;;4.55;1.73;;;25.20;99.90;;;;;;5065804;28;20199;-87
2023/01/11 09:39:27;;;;;;;5.18;1.58;;;25.10;99.90;;;;;;5067314;28;20230;-86
2023/01/11 09:42:15;;;;;;;5.95;1.88;;;25.00;99.90;;;;;;5064435;28;20271;-87
2023/01/11 09:44:52;;;;;;;5.75;1.75;;;25.00;99.90;;;;;;5075299;28;20196;-87
2023/01/11 09:47:35;;;;;;;3.78;1.30;;;24.90;99.90;;;;;;5062236;28;20235;-87
2023/01/11 09:50:11;;;;;;;4.07;1.60;;;25.00;99.90;;;;;;5060878;28;20191;-83
2023/01/11 09:52:48;;;;;;;7.82;2.00;;;24.90;99.90;;;;;;5055929;28;20203;-87
2023/01/11 09:55:23;;;;;;;7.82;2.10;;;24.80;99.90;;;;;;5058997;28;20303;-91
2023/01/11 09:58:21;;;;;;;6.53;1.75;;;24.90;99.90;;;;;;5059520;28;20195;-88
2023/01/11 10:01:02;;;;;;;7.22;2.20;;;24.80;99.90;;;;;;5060735;28;20203;-87
2023/01/11 10:04:12;;;;;;;5.07;1.60;;;24.70;99.90;;;;;;5057683;28;20204;-90
2023/01/11 10:06:54;;;;;;;6.13;1.90;;;24.70;99.90;;;;;;5060097;28;20626;-88
2023/01/11 10:09:36;;;;;;;3.97;1.60;;;24.70;99.90;;;;;;5056320;28;20608;-89
2023/01/11 10:12:19;;;;;;;6.93;1.88;;;24.70;99.90;;;;;;5073621;28;20195;-88
2023/01/11 10:15:07;;;;;;;7.88;1.90;;;24.70;99.90;;;;;;5060691;28;20820;-86
2023/01/11 10:17:48;;;;;;;6.80;1.90;;;24.60;99.90;;;;;;5058897;28;20193;-89
2023/01/11 10:20:26;;;;;;;7.25;1.70;;;24.70;99.90;;;;;;5059799;28;20579;-88
2023/01/11 10:23:05;;;;;;;8.80;1.85;;;24.60;99.90;;;;;;5054884;28;20243;-89
2023/01/11 10:25:43;;;;;;;5.47;2.00;;;24.60;99.90;;;;;;5057708;28;20202;-88
2023/01/11 10:28:23;;;;;;;5.45;1.73;;;24.50;99.90;;;;;;5057473;28;20192;-88
2023/01/11 10:31:25;;;;;;;8.77;1.73;;;24.50;99.90;;;;;;5058124;28;20681;-87
2023/01/11 10:34:14;;;;;;;5.25;1.73;;;24.50;99.90;;;;;;5060153;28;20226;-88
2023/01/11 10:37:11;;;;;;;6.93;1.80;;;24.40;99.90;;;;;;5061612;28;20195;-87
2023/01/11 10:40:13;;;;;;;6.78;2.00;;;24.40;99.90;;;;;;5057805;28;20211;-87
2023/01/11 10:42:48;;;;;;;6.25;1.83;;;24.40;99.90;;;;;;5062645;28;20203;-88
2023/01/11 10:45:24;;;;;;;8.05;1.80;;;24.40;99.90;;;;;;5069196;28;20182;-89
2023/01/11 10:48:04;;;;;;;8.73;2.20;;;24.30;99.90;;;;;;5071097;28;20192;-89
2023/01/11 10:50:40;;;;;;;4.75;1.52;;;24.40;99.90;;;;;;5063920;28;20216;-89
2023/01/11 10:53:17;;;;;;;4.15;1.40;;;24.30;99.90;;;;;;5057824;28;20216;-90
2023/01/11 10:55:58;;;;;;;5.60;1.67;;;24.30;99.90;;;;;;5065190;28;20215;-93
2023/01/11 10:58:53;;;;;;;5.60;1.70;;;24.20;99.90;;;;;;5069651;28;20307;-91
2023/01/11 11:01:33;;;;;;;8.25;1.60;;;24.20;99.90;;;;;;5058264;28;20224;-92
2023/01/11 11:04:32;;;;;;;4.82;1.50;;;24.20;99.90;;;;;;5060471;28;20717;-92
2023/01/11 11:07:11;;;;;;;5.43;1.52;;;24.20;99.90;;;;;;5058664;28;20202;-94
2023/01/11 11:09:54;;;;;;;5.50;1.58;;;24.20;99.90;;;;;;5066894;28;20207;-94
2023/01/11 11:12:31;;;;;;;9.00;2.03;;;24.20;99.90;;;;;;5061112;28;20242;-93
2023/01/11 11:15:13;;;;;;;5.05;1.58;;;24.20;99.90;;;;;;5065802;28;20227;-92
2023/01/11 11:17:50;;;;;;;8.70;1.80;;;24.10;99.90;;;;;;5064530;28;20274;-93
2023/01/11 11:20:25;;;;;;;4.85;1.98;;;24.00;99.90;;;;;;5065910;28;20232;-94
2023/01/11 11:23:00;;;;;;;5.70;1.73;;;24.10;99.90;;;;;;5066619;28;20753;-91
2023/01/11 11:25:36;;;;;;;6.43;1.90;;;24.10;99.90;;;;;;5061698;28;20622;-91
2023/01/11 11:28:09;;;;;;;7.43;1.73;;;24.10;99.90;;;;;;5062970;28;20321;-92
2023/01/11 11:30:45;;;;;;;5.80;2.00;;;24.10;99.90;;;;;;5064798;28;20235;-90
2023/01/11 11:33:22;;;;;;;8.70;1.98;;;24.00;99.90;;;;;;5063266;28;20204;-92
2023/01/11 11:36:03;;;;;;;6.47;1.90;;;24.00;99.90;;;;;;5065479;28;20219;-88
2023/01/11 11:38:36;;;;;;;7.68;1.77;;;24.00;99.90;;;;;;5056986;28;20200;-88
2023/01/11 11:41:15;;;;;;;8.23;1.90;;;24.00;99.90;;;;;;5066280;28;20195;-90
2023/01/11 11:43:49;;;;;;;6.85;1.73;;;24.00;99.90;;;;;;5064658;28;20222;-94
2023/01/11 11:46:26;;;;;;;7.82;2.10;;;24.00;99.90;;;;;;5082002;28;22219;-92
2023/01/11 11:49:17;;;;;;;5.45;2.10;;;24.00;99.90;;;;;;5065050;28;20196;-91
2023/01/11 11:51:52;;;;;;;7.18;1.70;;;24.00;99.90;;;;;;5068970;28;20192;-92
2023/01/11 11:54:27;;;;;;;9.27;1.50;;;23.90;99.90;;;;;;5067198;28;20216;-92
2023/01/11 11:57:01;;;;;;;4.43;1.70;;;24.00;99.90;;;;;;5069681;28;20219;-88
2023/01/11 11:59:33;;;;;;;9.48;2.17;;;23.90;99.90;;;;;;5069397;28;20244;-89
2023/01/11 12:02:10;;;;;;;3.85;1.50;;;23.90;99.90;;;;;;5068951;28;20188;-92
2023/01/11 12:04:49;;;;;;;7.72;1.98;;;23.90;99.90;;;;;;5066736;28;20673;-91
2023/01/11 12:07:25;;;;;;;6.65;1.85;;;23.90;99.90;;;;;;5065431;28;20210;-90
2023/01/11 12:10:03;;;;;;;7.85;2.20;;;23.90;99.90;;;;;;5068750;28;20200;-89
2023/01/11 12:12:35;;;;;;;5.25;1.60;;;23.90;99.90;;;;;;5070815;28;20256;-90
2023/01/11 12:15:20;;;;;;;8.35;2.03;;;23.90;99.90;;;;;;5067208;28;20283;-90
2023/01/11 12:17:52;;;;;;;7.38;1.88;;;23.90;99.90;;;;;;5071985;28;20251;-90
2023/01/11 12:20:35;;;;;;;7.43;1.88;;;23.90;99.90;;;;;;5071823;28;20716;-91
2023/01/11 12:23:20;;;;;;;6.45;2.05;;;23.90;99.90;;;;;;5065256;28;20219;-91
2023/01/11 12:26:18;;;;;;;5.47;1.80;;;23.90;99.90;;;;;;5062245;28;20207;-91
2023/01/11 12:29:20;;;;;;;5.05;1.73;;;23.90;99.90;;;;;;5058894;28;20207;-90
2023/01/11 12:32:15;;;;;;;9.68;2.10;;;24.00;99.90;;;;;;5045523;28;20207;-92
2023/01/11 12:35:04;;;;;;;7.50;1.70;;;23.90;99.90;;;;;;5064239;28;20196;-93
2023/01/11 12:38:04;;;;;;;7.10;1.60;;;23.90;99.90;;;;;;5061220;28;20200;-90
2023/01/11 12:40:44;;;;;;;5.05;1.52;;;23.90;99.90;;;;;;5063024;28;20227;-91
2023/01/11 12:43:55;;;;;;;8.15;2.10;;;23.90;99.90;;;;;;5060585;28;20195;-90
2023/01/11 12:46:36;;;;;;;5.38;1.77;;;23.90;99.90;;;;;;5071855;28;20239;-90
2023/01/11 12:49:22;;;;;;;5.35;1.90;;;23.90;99.90;;;;;;5065005;28;20252;-87
2023/01/11 12:52:19;;;;;;;7.80;2.15;;;23.90;99.90;;;;;;5067485;28;20275;-86
2023/01/11 12:55:07;;;;;;;5.43;1.70;;;23.90;99.90;;;;;;5066197;28;20260;-90
2023/01/11 12:58:04;;;;;;;5.63;1.63;;;23.90;99.90;;;;;;5065950;28;20208;-90
2023/01/11 13:00:56;;;;;;;4.57;1.60;;;23.90;99.90;;;;;;5062795;28;21061;-90
2023/01/11 13:03:53;;;;;;;6.43;1.83;;;23.90;99.90;;;;;;5064587;28;20203;-89
2023/01/11 13:06:32;;;;;;;6.97;2.00;;;24.00;99.90;;;;;;5072179;28;20231;-93
2023/01/11 13:09:09;;;;;;;5.90;2.00;;;23.90;99.90;;;;;;5062333;28;20196;-90
2023/01/11 13:11:50;;;;;;;5.80;1.70;;;23.90;99.90;;;;;;5062092;28;20219;-90
2023/01/11 13:14:43;;;;;;;5.80;1.67;;;23.90;99.90;;;;;;5070202;28;20745;-89
2023/01/11 13:17:25;;;;;;;4.80;1.70;;;23.90;99.90;;;;;;5062834;28;20188;-91
2023/01/11 13:20:20;;;;;;;7.95;1.77;;;23.90;99.90;;;;;;5069763;28;20343;-91
2023/01/11 13:22:56;;;;;;;5.93;1.60;;;23.90;99.90;;;;;;5063730;28;20205;-90
2023/01/11 13:25:35;;;;;;;5.85;1.50;;;23.90;99.90;;;;;;5062104;28;20203;-91
2023/01/11 13:28:17;;;;;;;5.75;1.75;;;23.90;99.90;;;;;;5065360;28;20227;-92
2023/01/11 13:30:52;;;;;;;6.22;2.00;;;23.90;99.90;;;;;;5062071;28;20201;-91
2023/01/11 13:33:29;;;;;;;9.95;1.83;;;23.80;99.90;;;;;;5063247;28;20209;-92
2023/01/11 13:36:06;;;;;;;7.60;2.00;;;23.70;99.90;;;;;;5063066;28;20275;-92
2023/01/11 13:38:44;;;;;;;5.85;1.80;;;23.70;99.90;;;;;;5063731;28;20650;-92
2023/01/11 13:41:19;;;;;;;5.82;1.55;;;23.70;99.90;;;;;;5060316;28;20203;-93
2023/01/11 13:43:56;;;;;;;4.68;1.70;;;23.70;99.90;;;;;;5068050;28;20197;-91
2023/01/11 13:46:47;;;;;;;3.53;1.48;;;23.70;99.90;;;;;;5074906;28;20212;-92
2023/01/11 13:49:36;;;;;;;4.55;1.70;;;23.70;99.90;;;;;;5062243;28;20193;-93
2023/01/11 13:52:14;;;;;;;6.28;1.70;;;23.70;99.90;;;;;;5063978;28;21138;-92
2023/01/11 13:55:03;;;;;;;5.07;1.63;;;23.60;99.90;;;;;;5067510;28;20196;-91
2023/01/11 13:57:40;;;;;;;4.63;1.60;;;23.70;99.90;;;;;;5060039;28;20670;-91
2023/01/11 14:00:22;;;;;;;7.18;1.90;;;23.60;99.90;;;;;;5061634;28;20238;-92
2023/01/11 14:03:00;;;;;;;5.32;1.80;;;23.60;99.90;;;;;;5058036;28;20208;-90
2023/01/11 14:05:39;;;;;;;4.85;1.63;;;23.60;99.90;;;;;;5059452;28;20215;-91